sensor_id;sensor_type;location;lat;lon;timestamp;P1;durP1;ratioP1;P2;durP2;ratioP2
10719;SDS011;5411;58.386;15.560;2023-08-06T00:00:59;5.90;;;3.30;;
10719;SDS011;5411;58.386;15.560;2023-08-06T00:03:27;5.40;;;3.80;;
10719;SDS011;5411;58.386;15.560;2023-08-06T00:05:56;4.60;;;3.20;;
10719;SDS011;5411;58.386;15.560;2023-08-06T00:08:25;7.53;;;4.10;;
10719;SDS011;5411;58.386;15.560;2023-08-06T00:10:54;4.80;;;4.20;;
10719;SDS011;5411;58.386;15.560;2023-08-06T00:13:22;4.77;;;3.33;;
10719;SDS011;5411;58.386;15.560;2023-08-06T00:15:53;4.53;;;3.13;;
10719;SDS011;5411;58.386;15.560;2023-08-06T00:18:21;4.57;;;3.97;;
10719;SDS011;5411;58.386;15.560;2023-08-06T00:20:49;7.17;;;3.90;;
10719;SDS011;5411;58.386;15.560;2023-08-06T00:23:20;5.20;;;3.80;;
10719;SDS011;5411;58.386;15.560;2023-08-06T00:25:50;6.23;;;3.57;;
10719;SDS011;5411;58.386;15.560;2023-08-06T00:28:18;5.43;;;3.87;;
10719;SDS011;5411;58.386;15.560;2023-08-06T00:30:51;7.07;;;3.60;;
10719;SDS011;5411;58.386;15.560;2023-08-06T00:33:21;4.77;;;3.60;;
10719;SDS011;5411;58.386;15.560;2023-08-06T00:35:50;4.53;;;3.57;;
10719;SDS011;5411;58.386;15.560;2023-08-06T00:38:19;5.30;;;3.77;;
10719;SDS011;5411;58.386;15.560;2023-08-06T00:40:47;3.90;;;3.30;;
10719;SDS011;5411;58.386;15.560;2023-08-06T00:43:17;4.13;;;3.50;;
10719;SDS011;5411;58.386;15.560;2023-08-06T00:45:45;4.30;;;3.60;;
10719;SDS011;5411;58.386;15.560;2023-08-06T00:48:14;5.90;;;3.80;;
10719;SDS011;5411;58.386;15.560;2023-08-06T00:50:43;6.33;;;3.83;;
10719;SDS011;5411;58.386;15.560;2023-08-06T00:53:12;5.57;;;3.40;;
10719;SDS011;5411;58.386;15.560;2023-08-06T00:55:41;5.60;;;3.73;;
10719;SDS011;5411;58.386;15.560;2023-08-06T00:58:12;4.10;;;3.70;;
10719;SDS011;5411;58.386;15.560;2023-08-06T01:00:46;4.57;;;3.90;;
10719;SDS011;5411;58.386;15.560;2023-08-06T01:03:15;4.67;;;3.70;;
10719;SDS011;5411;58.386;15.560;2023-08-06T01:05:46;6.67;;;3.30;;
10719;SDS011;5411;58.386;15.560;2023-08-06T01:08:21;4.80;;;3.73;;
10719;SDS011;5411;58.386;15.560;2023-08-06T01:11:01;4.20;;;3.80;;
10719;SDS011;5411;58.386;15.560;2023-08-06T01:13:44;3.90;;;3.50;;
10719;SDS011;5411;58.386;15.560;2023-08-06T01:16:17;5.13;;;3.73;;
10719;SDS011;5411;58.386;15.560;2023-08-06T01:18:46;3.83;;;3.43;;
10719;SDS011;5411;58.386;15.560;2023-08-06T01:21:17;5.97;;;3.70;;
10719;SDS011;5411;58.386;15.560;2023-08-06T01:23:46;5.90;;;3.90;;
10719;SDS011;5411;58.386;15.560;2023-08-06T01:26:19;6.50;;;3.37;;
10719;SDS011;5411;58.386;15.560;2023-08-06T01:28:58;4.97;;;3.70;;
10719;SDS011;5411;58.386;15.560;2023-08-06T01:31:35;4.10;;;3.70;;
10719;SDS011;5411;58.386;15.560;2023-08-06T01:34:06;5.90;;;3.57;;
10719;SDS011;5411;58.386;15.560;2023-08-06T01:36:40;4.40;;;3.47;;
10719;SDS011;5411;58.386;15.560;2023-08-06T01:39:09;4.67;;;3.73;;
10719;SDS011;5411;58.386;15.560;2023-08-06T01:41:37;4.50;;;3.77;;
10719;SDS011;5411;58.386;15.560;2023-08-06T01:44:06;6.53;;;3.40;;
10719;SDS011;5411;58.386;15.560;2023-08-06T01:46:35;7.83;;;3.47;;
10719;SDS011;5411;58.386;15.560;2023-08-06T01:49:04;5.00;;;3.47;;
10719;SDS011;5411;58.386;15.560;2023-08-06T01:51:32;3.53;;;3.23;;
10719;SDS011;5411;58.386;15.560;2023-08-06T01:54:03;4.70;;;3.40;;
10719;SDS011;5411;58.386;15.560;2023-08-06T01:56:31;6.13;;;3.57;;
10719;SDS011;5411;58.386;15.560;2023-08-06T01:59:00;3.47;;;3.17;;
10719;SDS011;5411;58.386;15.560;2023-08-06T02:01:30;5.20;;;3.47;;
10719;SDS011;5411;58.386;15.560;2023-08-06T02:03:59;5.73;;;3.20;;
10719;SDS011;5411;58.386;15.560;2023-08-06T02:06:27;4.33;;;3.47;;
10719;SDS011;5411;58.386;15.560;2023-08-06T02:08:58;5.43;;;3.30;;
10719;SDS011;5411;58.386;15.560;2023-08-06T02:11:28;5.30;;;3.70;;
10719;SDS011;5411;58.386;15.560;2023-08-06T02:13:56;6.57;;;3.47;;
10719;SDS011;5411;58.386;15.560;2023-08-06T02:16:24;3.63;;;3.30;;
10719;SDS011;5411;58.386;15.560;2023-08-06T02:18:53;6.63;;;3.23;;
10719;SDS011;5411;58.386;15.560;2023-08-06T02:21:21;6.00;;;3.87;;
10719;SDS011;5411;58.386;15.560;2023-08-06T02:23:49;5.07;;;3.37;;
10719;SDS011;5411;58.386;15.560;2023-08-06T02:26:18;4.83;;;3.30;;
10719;SDS011;5411;58.386;15.560;2023-08-06T02:28:48;6.83;;;3.27;;
10719;SDS011;5411;58.386;15.560;2023-08-06T02:31:19;4.00;;;3.60;;
10719;SDS011;5411;58.386;15.560;2023-08-06T02:33:47;4.60;;;3.57;;
10719;SDS011;5411;58.386;15.560;2023-08-06T02:36:18;5.03;;;3.93;;
10719;SDS011;5411;58.386;15.560;2023-08-06T02:38:46;3.93;;;3.30;;
10719;SDS011;5411;58.386;15.560;2023-08-06T02:41:14;4.13;;;3.20;;
10719;SDS011;5411;58.386;15.560;2023-08-06T02:43:43;4.10;;;3.27;;
10719;SDS011;5411;58.386;15.560;2023-08-06T02:46:12;5.03;;;3.63;;
10719;SDS011;5411;58.386;15.560;2023-08-06T02:48:42;5.20;;;3.60;;
10719;SDS011;5411;58.386;15.560;2023-08-06T02:51:12;4.77;;;3.33;;
10719;SDS011;5411;58.386;15.560;2023-08-06T02:53:41;5.70;;;3.57;;
10719;SDS011;5411;58.386;15.560;2023-08-06T02:56:09;4.20;;;3.60;;
10719;SDS011;5411;58.386;15.560;2023-08-06T02:58:38;3.93;;;3.53;;
10719;SDS011;5411;58.386;15.560;2023-08-06T03:01:06;4.83;;;3.43;;
10719;SDS011;5411;58.386;15.560;2023-08-06T03:03:36;4.60;;;3.27;;
10719;SDS011;5411;58.386;15.560;2023-08-06T03:06:04;8.03;;;3.30;;
10719;SDS011;5411;58.386;15.560;2023-08-06T03:08:33;6.73;;;3.60;;
10719;SDS011;5411;58.386;15.560;2023-08-06T03:11:01;8.27;;;4.37;;
10719;SDS011;5411;58.386;15.560;2023-08-06T03:13:29;5.87;;;3.57;;
10719;SDS011;5411;58.386;15.560;2023-08-06T03:15:58;3.93;;;3.43;;
10719;SDS011;5411;58.386;15.560;2023-08-06T03:18:28;4.90;;;3.50;;
10719;SDS011;5411;58.386;15.560;2023-08-06T03:20:58;9.10;;;3.80;;
10719;SDS011;5411;58.386;15.560;2023-08-06T03:23:26;4.97;;;3.90;;
10719;SDS011;5411;58.386;15.560;2023-08-06T03:25:55;5.60;;;3.63;;
10719;SDS011;5411;58.386;15.560;2023-08-06T03:28:23;5.33;;;3.63;;
10719;SDS011;5411;58.386;15.560;2023-08-06T03:30:58;5.87;;;3.63;;
10719;SDS011;5411;58.386;15.560;2023-08-06T03:33:28;4.13;;;3.80;;
10719;SDS011;5411;58.386;15.560;2023-08-06T03:35:56;4.90;;;3.73;;
10719;SDS011;5411;58.386;15.560;2023-08-06T03:38:26;6.40;;;3.93;;
10719;SDS011;5411;58.386;15.560;2023-08-06T03:41:00;3.73;;;3.37;;
10719;SDS011;5411;58.386;15.560;2023-08-06T03:43:28;4.93;;;3.60;;
10719;SDS011;5411;58.386;15.560;2023-08-06T03:45:57;4.03;;;2.80;;
10719;SDS011;5411;58.386;15.560;2023-08-06T03:48:26;4.17;;;3.57;;
10719;SDS011;5411;58.386;15.560;2023-08-06T03:50:55;5.77;;;3.53;;
10719;SDS011;5411;58.386;15.560;2023-08-06T03:53:23;4.17;;;3.63;;
10719;SDS011;5411;58.386;15.560;2023-08-06T03:55:53;4.27;;;3.30;;
10719;SDS011;5411;58.386;15.560;2023-08-06T03:58:27;5.30;;;3.87;;
10719;SDS011;5411;58.386;15.560;2023-08-06T04:00:59;5.33;;;3.60;;
10719;SDS011;5411;58.386;15.560;2023-08-06T04:03:29;9.50;;;3.67;;
10719;SDS011;5411;58.386;15.560;2023-08-06T04:05:57;7.20;;;3.97;;
10719;SDS011;5411;58.386;15.560;2023-08-06T04:08:28;4.23;;;3.83;;
10719;SDS011;5411;58.386;15.560;2023-08-06T04:10:58;4.60;;;4.10;;
10719;SDS011;5411;58.386;15.560;2023-08-06T04:13:26;4.80;;;4.30;;
10719;SDS011;5411;58.386;15.560;2023-08-06T04:16:02;4.13;;;3.60;;
10719;SDS011;5411;58.386;15.560;2023-08-06T04:18:43;5.53;;;4.37;;
10719;SDS011;5411;58.386;15.560;2023-08-06T04:21:12;5.40;;;3.83;;
10719;SDS011;5411;58.386;15.560;2023-08-06T04:23:40;9.47;;;4.20;;
10719;SDS011;5411;58.386;15.560;2023-08-06T04:26:10;4.77;;;3.87;;
10719;SDS011;5411;58.386;15.560;2023-08-06T04:28:39;4.60;;;3.80;;
10719;SDS011;5411;58.386;15.560;2023-08-06T04:31:08;4.83;;;4.30;;
10719;SDS011;5411;58.386;15.560;2023-08-06T04:33:36;5.47;;;4.40;;
10719;SDS011;5411;58.386;15.560;2023-08-06T04:36:04;5.03;;;4.10;;
10719;SDS011;5411;58.386;15.560;2023-08-06T04:38:33;5.30;;;4.20;;
10719;SDS011;5411;58.386;15.560;2023-08-06T04:41:06;3.83;;;3.53;;
10719;SDS011;5411;58.386;15.560;2023-08-06T04:43:36;3.87;;;3.50;;
10719;SDS011;5411;58.386;15.560;2023-08-06T04:46:05;7.43;;;3.47;;
10719;SDS011;5411;58.386;15.560;2023-08-06T04:48:33;6.07;;;4.20;;
10719;SDS011;5411;58.386;15.560;2023-08-06T04:51:02;5.60;;;4.37;;
10719;SDS011;5411;58.386;15.560;2023-08-06T04:53:31;4.73;;;4.33;;
10719;SDS011;5411;58.386;15.560;2023-08-06T04:55:59;4.90;;;3.67;;
10719;SDS011;5411;58.386;15.560;2023-08-06T04:58:30;7.00;;;4.07;;
10719;SDS011;5411;58.386;15.560;2023-08-06T05:00:59;5.37;;;3.73;;
10719;SDS011;5411;58.386;15.560;2023-08-06T05:03:32;6.30;;;3.80;;
10719;SDS011;5411;58.386;15.560;2023-08-06T05:06:00;5.70;;;3.90;;
10719;SDS011;5411;58.386;15.560;2023-08-06T05:08:28;5.20;;;3.90;;
10719;SDS011;5411;58.386;15.560;2023-08-06T05:10:57;7.17;;;4.40;;
10719;SDS011;5411;58.386;15.560;2023-08-06T05:13:25;4.13;;;3.70;;
10719;SDS011;5411;58.386;15.560;2023-08-06T05:15:56;5.87;;;3.80;;
10719;SDS011;5411;58.386;15.560;2023-08-06T05:18:27;8.60;;;4.30;;
10719;SDS011;5411;58.386;15.560;2023-08-06T05:20:57;7.63;;;4.50;;
10719;SDS011;5411;58.386;15.560;2023-08-06T05:23:28;5.27;;;4.10;;
10719;SDS011;5411;58.386;15.560;2023-08-06T05:25:58;6.10;;;4.30;;
10719;SDS011;5411;58.386;15.560;2023-08-06T05:28:29;5.33;;;4.03;;
10719;SDS011;5411;58.386;15.560;2023-08-06T05:30:58;6.63;;;4.37;;
10719;SDS011;5411;58.386;15.560;2023-08-06T05:33:28;5.93;;;4.50;;
10719;SDS011;5411;58.386;15.560;2023-08-06T05:35:56;7.10;;;4.80;;
10719;SDS011;5411;58.386;15.560;2023-08-06T05:38:24;5.57;;;4.90;;
10719;SDS011;5411;58.386;15.560;2023-08-06T05:40:53;6.50;;;4.80;;
10719;SDS011;5411;58.386;15.560;2023-08-06T05:43:21;8.83;;;5.10;;
10719;SDS011;5411;58.386;15.560;2023-08-06T05:45:50;6.50;;;4.67;;
10719;SDS011;5411;58.386;15.560;2023-08-06T05:48:18;6.80;;;4.20;;
10719;SDS011;5411;58.386;15.560;2023-08-06T05:50:50;9.47;;;4.67;;
10719;SDS011;5411;58.386;15.560;2023-08-06T05:53:19;10.50;;;4.93;;
10719;SDS011;5411;58.386;15.560;2023-08-06T05:55:48;6.67;;;4.70;;
10719;SDS011;5411;58.386;15.560;2023-08-06T05:58:18;4.80;;;4.33;;
10719;SDS011;5411;58.386;15.560;2023-08-06T06:00:52;6.13;;;4.63;;
10719;SDS011;5411;58.386;15.560;2023-08-06T06:03:20;6.37;;;4.37;;
10719;SDS011;5411;58.386;15.560;2023-08-06T06:05:52;5.40;;;4.47;;
10719;SDS011;5411;58.386;15.560;2023-08-06T06:08:20;6.47;;;4.83;;
10719;SDS011;5411;58.386;15.560;2023-08-06T06:10:49;6.23;;;4.37;;
10719;SDS011;5411;58.386;15.560;2023-08-06T06:13:17;5.50;;;4.17;;
10719;SDS011;5411;58.386;15.560;2023-08-06T06:15:46;4.60;;;4.20;;
10719;SDS011;5411;58.386;15.560;2023-08-06T06:18:14;7.63;;;3.97;;
10719;SDS011;5411;58.386;15.560;2023-08-06T06:20:47;5.93;;;4.17;;
10719;SDS011;5411;58.386;15.560;2023-08-06T06:23:17;5.67;;;4.73;;
10719;SDS011;5411;58.386;15.560;2023-08-06T06:25:47;6.40;;;3.93;;
10719;SDS011;5411;58.386;15.560;2023-08-06T06:28:18;5.13;;;3.63;;
10719;SDS011;5411;58.386;15.560;2023-08-06T06:30:47;5.10;;;3.53;;
10719;SDS011;5411;58.386;15.560;2023-08-06T06:33:18;2.63;;;2.43;;
10719;SDS011;5411;58.386;15.560;2023-08-06T06:35:50;3.40;;;2.30;;
10719;SDS011;5411;58.386;15.560;2023-08-06T06:38:18;4.13;;;2.47;;
10719;SDS011;5411;58.386;15.560;2023-08-06T06:40:53;3.07;;;2.60;;
10719;SDS011;5411;58.386;15.560;2023-08-06T06:43:21;4.33;;;2.57;;
10719;SDS011;5411;58.386;15.560;2023-08-06T06:45:52;3.53;;;2.27;;
10719;SDS011;5411;58.386;15.560;2023-08-06T06:48:24;4.70;;;2.50;;
10719;SDS011;5411;58.386;15.560;2023-08-06T06:51:02;3.33;;;2.30;;
10719;SDS011;5411;58.386;15.560;2023-08-06T06:53:30;2.13;;;1.93;;
10719;SDS011;5411;58.386;15.560;2023-08-06T06:56:01;2.97;;;2.10;;
10719;SDS011;5411;58.386;15.560;2023-08-06T06:58:32;4.70;;;2.23;;
10719;SDS011;5411;58.386;15.560;2023-08-06T07:01:04;2.80;;;1.80;;
10719;SDS011;5411;58.386;15.560;2023-08-06T07:03:33;4.00;;;1.80;;
10719;SDS011;5411;58.386;15.560;2023-08-06T07:06:03;3.53;;;1.73;;
10719;SDS011;5411;58.386;15.560;2023-08-06T07:08:32;1.87;;;1.50;;
10719;SDS011;5411;58.386;15.560;2023-08-06T07:11:04;3.13;;;1.80;;
10719;SDS011;5411;58.386;15.560;2023-08-06T07:13:33;4.37;;;1.97;;
10719;SDS011;5411;58.386;15.560;2023-08-06T07:16:05;1.93;;;1.60;;
10719;SDS011;5411;58.386;15.560;2023-08-06T07:18:37;2.33;;;1.97;;
10719;SDS011;5411;58.386;15.560;2023-08-06T07:21:06;3.87;;;1.60;;
10719;SDS011;5411;58.386;15.560;2023-08-06T07:23:34;2.53;;;1.80;;
10719;SDS011;5411;58.386;15.560;2023-08-06T07:26:03;4.10;;;1.73;;
10719;SDS011;5411;58.386;15.560;2023-08-06T07:28:31;1.90;;;1.60;;
10719;SDS011;5411;58.386;15.560;2023-08-06T07:30:59;2.93;;;1.80;;
10719;SDS011;5411;58.386;15.560;2023-08-06T07:33:28;3.43;;;1.70;;
10719;SDS011;5411;58.386;15.560;2023-08-06T07:35:56;1.63;;;1.53;;
10719;SDS011;5411;58.386;15.560;2023-08-06T07:38:25;2.27;;;1.70;;
10719;SDS011;5411;58.386;15.560;2023-08-06T07:40:54;2.63;;;2.30;;
10719;SDS011;5411;58.386;15.560;2023-08-06T07:43:25;1.97;;;1.50;;
10719;SDS011;5411;58.386;15.560;2023-08-06T07:45:53;2.20;;;1.77;;
10719;SDS011;5411;58.386;15.560;2023-08-06T07:48:21;1.63;;;1.40;;
10719;SDS011;5411;58.386;15.560;2023-08-06T07:50:51;2.70;;;1.90;;
10719;SDS011;5411;58.386;15.560;2023-08-06T07:53:21;3.40;;;1.90;;
10719;SDS011;5411;58.386;15.560;2023-08-06T07:55:54;2.80;;;2.00;;
10719;SDS011;5411;58.386;15.560;2023-08-06T07:58:23;2.43;;;1.73;;
10719;SDS011;5411;58.386;15.560;2023-08-06T08:00:53;4.93;;;1.60;;
10719;SDS011;5411;58.386;15.560;2023-08-06T08:03:23;2.30;;;1.80;;
10719;SDS011;5411;58.386;15.560;2023-08-06T08:05:54;1.80;;;1.70;;
10719;SDS011;5411;58.386;15.560;2023-08-06T08:08:27;3.03;;;2.17;;
10719;SDS011;5411;58.386;15.560;2023-08-06T08:10:57;2.37;;;1.77;;
10719;SDS011;5411;58.386;15.560;2023-08-06T08:13:31;1.90;;;1.80;;
10719;SDS011;5411;58.386;15.560;2023-08-06T08:16:02;2.37;;;2.17;;
10719;SDS011;5411;58.386;15.560;2023-08-06T08:18:30;2.43;;;1.70;;
10719;SDS011;5411;58.386;15.560;2023-08-06T08:20:59;2.80;;;1.87;;
10719;SDS011;5411;58.386;15.560;2023-08-06T08:23:28;3.10;;;1.60;;
10719;SDS011;5411;58.386;15.560;2023-08-06T08:25:59;2.97;;;1.70;;
10719;SDS011;5411;58.386;15.560;2023-08-06T08:28:28;1.50;;;1.40;;
10719;SDS011;5411;58.386;15.560;2023-08-06T08:30:58;3.97;;;1.60;;
10719;SDS011;5411;58.386;15.560;2023-08-06T08:33:26;2.53;;;1.90;;
10719;SDS011;5411;58.386;15.560;2023-08-06T08:35:54;2.20;;;1.90;;
10719;SDS011;5411;58.386;15.560;2023-08-06T08:38:22;1.60;;;1.50;;
10719;SDS011;5411;58.386;15.560;2023-08-06T08:40:53;2.90;;;1.80;;
10719;SDS011;5411;58.386;15.560;2023-08-06T08:43:23;4.27;;;1.80;;
10719;SDS011;5411;58.386;15.560;2023-08-06T08:45:55;2.33;;;1.70;;
10719;SDS011;5411;58.386;15.560;2023-08-06T08:48:27;3.30;;;2.10;;
10719;SDS011;5411;58.386;15.560;2023-08-06T08:51:03;3.03;;;2.07;;
10719;SDS011;5411;58.386;15.560;2023-08-06T08:53:34;3.13;;;1.70;;
10719;SDS011;5411;58.386;15.560;2023-08-06T08:56:09;3.57;;;1.90;;
10719;SDS011;5411;58.386;15.560;2023-08-06T08:58:41;2.00;;;1.90;;
10719;SDS011;5411;58.386;15.560;2023-08-06T09:01:11;2.07;;;1.90;;
10719;SDS011;5411;58.386;15.560;2023-08-06T09:03:41;2.20;;;2.03;;
10719;SDS011;5411;58.386;15.560;2023-08-06T09:06:11;3.37;;;1.70;;
10719;SDS011;5411;58.386;15.560;2023-08-06T09:08:47;4.20;;;2.10;;
10719;SDS011;5411;58.386;15.560;2023-08-06T09:11:22;3.23;;;1.73;;
10719;SDS011;5411;58.386;15.560;2023-08-06T09:13:52;2.57;;;1.97;;
10719;SDS011;5411;58.386;15.560;2023-08-06T09:16:23;3.67;;;2.10;;
10719;SDS011;5411;58.386;15.560;2023-08-06T09:18:52;2.63;;;1.70;;
10719;SDS011;5411;58.386;15.560;2023-08-06T09:21:22;3.20;;;1.80;;
10719;SDS011;5411;58.386;15.560;2023-08-06T09:23:51;2.17;;;1.93;;
10719;SDS011;5411;58.386;15.560;2023-08-06T09:26:22;2.60;;;1.97;;
10719;SDS011;5411;58.386;15.560;2023-08-06T09:28:55;2.83;;;1.90;;
10719;SDS011;5411;58.386;15.560;2023-08-06T09:31:32;2.00;;;1.80;;
10719;SDS011;5411;58.386;15.560;2023-08-06T09:34:01;3.77;;;1.97;;
10719;SDS011;5411;58.386;15.560;2023-08-06T09:36:30;2.53;;;1.90;;
10719;SDS011;5411;58.386;15.560;2023-08-06T09:39:03;3.37;;;1.60;;
10719;SDS011;5411;58.386;15.560;2023-08-06T09:41:40;3.10;;;1.93;;
10719;SDS011;5411;58.386;15.560;2023-08-06T09:44:18;3.23;;;2.00;;
10719;SDS011;5411;58.386;15.560;2023-08-06T09:46:49;2.30;;;1.87;;
10719;SDS011;5411;58.386;15.560;2023-08-06T09:49:20;4.17;;;2.03;;
10719;SDS011;5411;58.386;15.560;2023-08-06T09:51:53;3.60;;;2.07;;
10719;SDS011;5411;58.386;15.560;2023-08-06T09:54:25;2.70;;;1.83;;
10719;SDS011;5411;58.386;15.560;2023-08-06T09:56:56;2.50;;;1.90;;
10719;SDS011;5411;58.386;15.560;2023-08-06T09:59:30;3.73;;;2.10;;
10719;SDS011;5411;58.386;15.560;2023-08-06T10:01:59;2.73;;;2.10;;
10719;SDS011;5411;58.386;15.560;2023-08-06T10:04:38;2.67;;;2.03;;
10719;SDS011;5411;58.386;15.560;2023-08-06T10:07:07;2.87;;;2.10;;
10719;SDS011;5411;58.386;15.560;2023-08-06T10:09:38;4.80;;;1.80;;
10719;SDS011;5411;58.386;15.560;2023-08-06T10:12:07;4.43;;;1.97;;
10719;SDS011;5411;58.386;15.560;2023-08-06T10:14:39;5.03;;;2.50;;
10719;SDS011;5411;58.386;15.560;2023-08-06T10:17:10;4.60;;;2.83;;
10719;SDS011;5411;58.386;15.560;2023-08-06T10:19:54;3.07;;;2.00;;
10719;SDS011;5411;58.386;15.560;2023-08-06T10:22:23;2.50;;;2.27;;
10719;SDS011;5411;58.386;15.560;2023-08-06T10:24:54;6.87;;;2.70;;
10719;SDS011;5411;58.386;15.560;2023-08-06T10:27:32;2.93;;;2.23;;
10719;SDS011;5411;58.386;15.560;2023-08-06T10:30:24;2.70;;;1.80;;
10719;SDS011;5411;58.386;15.560;2023-08-06T10:32:54;2.50;;;2.03;;
10719;SDS011;5411;58.386;15.560;2023-08-06T10:35:30;3.80;;;1.90;;
10719;SDS011;5411;58.386;15.560;2023-08-06T10:38:05;6.63;;;2.57;;
10719;SDS011;5411;58.386;15.560;2023-08-06T10:40:37;5.50;;;3.00;;
10719;SDS011;5411;58.386;15.560;2023-08-06T10:43:07;5.37;;;2.23;;
10719;SDS011;5411;58.386;15.560;2023-08-06T10:45:57;5.90;;;2.43;;
10719;SDS011;5411;58.386;15.560;2023-08-06T10:48:29;2.03;;;1.80;;
10719;SDS011;5411;58.386;15.560;2023-08-06T10:50:59;2.87;;;2.10;;
10719;SDS011;5411;58.386;15.560;2023-08-06T10:53:31;3.33;;;2.23;;
10719;SDS011;5411;58.386;15.560;2023-08-06T10:56:00;3.97;;;2.40;;
10719;SDS011;5411;58.386;15.560;2023-08-06T10:58:31;4.47;;;2.27;;
10719;SDS011;5411;58.386;15.560;2023-08-06T11:01:02;2.73;;;1.90;;
10719;SDS011;5411;58.386;15.560;2023-08-06T11:03:31;2.37;;;2.03;;
10719;SDS011;5411;58.386;15.560;2023-08-06T11:06:00;3.13;;;1.80;;
10719;SDS011;5411;58.386;15.560;2023-08-06T11:08:32;3.27;;;1.90;;
10719;SDS011;5411;58.386;15.560;2023-08-06T11:11:08;2.47;;;1.90;;
10719;SDS011;5411;58.386;15.560;2023-08-06T11:13:39;6.07;;;2.30;;
10719;SDS011;5411;58.386;15.560;2023-08-06T11:16:09;2.57;;;2.00;;
10719;SDS011;5411;58.386;15.560;2023-08-06T11:18:42;5.10;;;2.13;;
10719;SDS011;5411;58.386;15.560;2023-08-06T11:21:11;3.67;;;2.10;;
10719;SDS011;5411;58.386;15.560;2023-08-06T11:23:39;2.80;;;2.23;;
10719;SDS011;5411;58.386;15.560;2023-08-06T11:26:08;3.83;;;2.50;;
10719;SDS011;5411;58.386;15.560;2023-08-06T11:28:37;4.27;;;2.23;;
10719;SDS011;5411;58.386;15.560;2023-08-06T11:31:19;3.93;;;2.10;;
10719;SDS011;5411;58.386;15.560;2023-08-06T11:33:47;3.97;;;2.37;;
10719;SDS011;5411;58.386;15.560;2023-08-06T11:36:16;4.87;;;2.37;;
10719;SDS011;5411;58.386;15.560;2023-08-06T11:38:44;2.63;;;2.30;;
10719;SDS011;5411;58.386;15.560;2023-08-06T11:41:14;4.07;;;2.30;;
10719;SDS011;5411;58.386;15.560;2023-08-06T11:43:45;2.77;;;2.20;;
10719;SDS011;5411;58.386;15.560;2023-08-06T11:46:14;3.93;;;3.07;;
10719;SDS011;5411;58.386;15.560;2023-08-06T11:48:54;2.70;;;2.23;;
10719;SDS011;5411;58.386;15.560;2023-08-06T11:51:22;4.50;;;2.50;;
10719;SDS011;5411;58.386;15.560;2023-08-06T11:53:54;3.47;;;2.40;;
10719;SDS011;5411;58.386;15.560;2023-08-06T11:56:23;5.47;;;3.00;;
10719;SDS011;5411;58.386;15.560;2023-08-06T11:59:00;4.73;;;2.50;;
10719;SDS011;5411;58.386;15.560;2023-08-06T12:01:35;3.37;;;2.40;;
10719;SDS011;5411;58.386;15.560;2023-08-06T12:04:05;5.30;;;2.73;;
10719;SDS011;5411;58.386;15.560;2023-08-06T12:06:41;4.43;;;2.57;;
10719;SDS011;5411;58.386;15.560;2023-08-06T12:09:11;4.10;;;2.63;;
10719;SDS011;5411;58.386;15.560;2023-08-06T12:11:40;4.83;;;2.70;;
10719;SDS011;5411;58.386;15.560;2023-08-06T12:14:09;8.37;;;3.00;;
10719;SDS011;5411;58.386;15.560;2023-08-06T12:16:37;4.13;;;2.50;;
10719;SDS011;5411;58.386;15.560;2023-08-06T12:21:58;4.17;;;2.90;;
10719;SDS011;5411;58.386;15.560;2023-08-06T12:24:27;7.03;;;3.73;;
10719;SDS011;5411;58.386;15.560;2023-08-06T12:26:58;5.77;;;3.27;;
10719;SDS011;5411;58.386;15.560;2023-08-06T12:29:28;6.37;;;3.03;;
10719;SDS011;5411;58.386;15.560;2023-08-06T12:31:57;3.93;;;3.07;;
10719;SDS011;5411;58.386;15.560;2023-08-06T12:34:26;5.10;;;2.80;;
10719;SDS011;5411;58.386;15.560;2023-08-06T12:37:03;2.90;;;2.60;;
10719;SDS011;5411;58.386;15.560;2023-08-06T12:39:31;4.37;;;2.80;;
10719;SDS011;5411;58.386;15.560;2023-08-06T12:42:00;5.43;;;2.70;;
10719;SDS011;5411;58.386;15.560;2023-08-06T12:44:35;5.83;;;3.00;;
10719;SDS011;5411;58.386;15.560;2023-08-06T12:47:06;5.17;;;3.30;;
10719;SDS011;5411;58.386;15.560;2023-08-06T12:49:35;5.23;;;3.17;;
10719;SDS011;5411;58.386;15.560;2023-08-06T12:52:07;4.10;;;2.90;;
10719;SDS011;5411;58.386;15.560;2023-08-06T12:54:36;4.87;;;3.27;;
10719;SDS011;5411;58.386;15.560;2023-08-06T12:57:07;3.83;;;2.80;;
10719;SDS011;5411;58.386;15.560;2023-08-06T12:59:35;3.40;;;2.97;;
10719;SDS011;5411;58.386;15.560;2023-08-06T13:02:03;4.13;;;3.30;;
10719;SDS011;5411;58.386;15.560;2023-08-06T13:04:32;3.27;;;2.97;;
10719;SDS011;5411;58.386;15.560;2023-08-06T13:07:01;4.47;;;3.20;;
10719;SDS011;5411;58.386;15.560;2023-08-06T13:09:32;4.63;;;3.00;;
10719;SDS011;5411;58.386;15.560;2023-08-06T13:12:00;3.70;;;2.60;;
10719;SDS011;5411;58.386;15.560;2023-08-06T13:14:35;3.40;;;2.80;;
10719;SDS011;5411;58.386;15.560;2023-08-06T13:17:03;3.77;;;3.20;;
10719;SDS011;5411;58.386;15.560;2023-08-06T13:19:33;5.07;;;3.27;;
10719;SDS011;5411;58.386;15.560;2023-08-06T13:22:01;4.07;;;3.00;;
10719;SDS011;5411;58.386;15.560;2023-08-06T13:24:36;3.13;;;2.83;;
10719;SDS011;5411;58.386;15.560;2023-08-06T13:27:05;4.00;;;3.13;;
10719;SDS011;5411;58.386;15.560;2023-08-06T13:29:38;5.53;;;3.10;;
10719;SDS011;5411;58.386;15.560;2023-08-06T13:32:07;6.27;;;3.30;;
10719;SDS011;5411;58.386;15.560;2023-08-06T13:34:35;4.73;;;3.20;;
10719;SDS011;5411;58.386;15.560;2023-08-06T13:37:04;3.90;;;3.07;;
10719;SDS011;5411;58.386;15.560;2023-08-06T13:39:32;3.83;;;2.90;;
10719;SDS011;5411;58.386;15.560;2023-08-06T13:42:02;3.60;;;2.83;;
10719;SDS011;5411;58.386;15.560;2023-08-06T13:44:33;4.13;;;2.87;;
10719;SDS011;5411;58.386;15.560;2023-08-06T13:47:04;3.87;;;2.77;;
10719;SDS011;5411;58.386;15.560;2023-08-06T13:49:33;3.00;;;2.53;;
10719;SDS011;5411;58.386;15.560;2023-08-06T13:52:01;2.90;;;2.67;;
10719;SDS011;5411;58.386;15.560;2023-08-06T13:54:46;3.67;;;2.87;;
10719;SDS011;5411;58.386;15.560;2023-08-06T13:57:16;3.33;;;2.90;;
10719;SDS011;5411;58.386;15.560;2023-08-06T13:59:45;3.30;;;2.97;;
10719;SDS011;5411;58.386;15.560;2023-08-06T14:02:16;5.20;;;3.27;;
10719;SDS011;5411;58.386;15.560;2023-08-06T14:04:44;4.17;;;2.90;;
10719;SDS011;5411;58.386;15.560;2023-08-06T14:07:15;6.27;;;3.73;;
10719;SDS011;5411;58.386;15.560;2023-08-06T14:09:48;4.43;;;2.93;;
10719;SDS011;5411;58.386;15.560;2023-08-06T14:12:18;4.70;;;3.60;;
10719;SDS011;5411;58.386;15.560;2023-08-06T14:14:46;7.20;;;3.70;;
10719;SDS011;5411;58.386;15.560;2023-08-06T14:17:15;5.00;;;3.50;;
10719;SDS011;5411;58.386;15.560;2023-08-06T14:19:43;5.37;;;3.40;;
10719;SDS011;5411;58.386;15.560;2023-08-06T14:22:11;5.47;;;4.00;;
10719;SDS011;5411;58.386;15.560;2023-08-06T14:24:42;5.27;;;3.63;;
10719;SDS011;5411;58.386;15.560;2023-08-06T14:27:11;6.30;;;4.03;;
10719;SDS011;5411;58.386;15.560;2023-08-06T14:29:40;3.67;;;3.33;;
10719;SDS011;5411;58.386;15.560;2023-08-06T14:32:08;4.40;;;3.60;;
10719;SDS011;5411;58.386;15.560;2023-08-06T14:34:36;5.37;;;4.27;;
10719;SDS011;5411;58.386;15.560;2023-08-06T14:37:05;5.43;;;4.07;;
10719;SDS011;5411;58.386;15.560;2023-08-06T14:39:33;4.40;;;3.60;;
10719;SDS011;5411;58.386;15.560;2023-08-06T14:42:01;5.77;;;3.90;;
10719;SDS011;5411;58.386;15.560;2023-08-06T14:44:30;4.70;;;3.77;;
10719;SDS011;5411;58.386;15.560;2023-08-06T14:47:00;7.63;;;4.20;;
10719;SDS011;5411;58.386;15.560;2023-08-06T14:49:30;4.87;;;3.90;;
10719;SDS011;5411;58.386;15.560;2023-08-06T14:51:59;5.53;;;3.73;;
10719;SDS011;5411;58.386;15.560;2023-08-06T14:54:28;4.67;;;3.80;;
10719;SDS011;5411;58.386;15.560;2023-08-06T14:56:57;6.53;;;4.27;;
10719;SDS011;5411;58.386;15.560;2023-08-06T14:59:25;5.03;;;4.07;;
10719;SDS011;5411;58.386;15.560;2023-08-06T15:01:56;5.83;;;3.70;;
10719;SDS011;5411;58.386;15.560;2023-08-06T15:04:25;5.20;;;3.93;;
10719;SDS011;5411;58.386;15.560;2023-08-06T15:06:53;6.33;;;3.93;;
10719;SDS011;5411;58.386;15.560;2023-08-06T15:09:22;4.33;;;3.93;;